KFRH/FRH METAR and TAF weather

Enter ICAO airport designator
Station Type Date Time Source
KFRH METAR 2021/09/27 08:15 UTC NOAA

KFRH 270815Z AUTO 22004KT 10SM CLR 16/09 A3002 RMK AO1


Station Type Date Time Source
KFRH Decoded METAR 2021/09/27 08:15 UTC NOAA

Station name not available
Sep 27, 2021 - 04:15 AM EDT / 2021.09.27 0815 UTC
Wind: from the SW (220 degrees) at 5 MPH (4 KT):0
Visibility: 10 mile(s):0
Sky conditions: clear
Temperature: 60 F (16 C)
Dew Point: 48 F (9 C)
Relative Humidity: 63%
Pressure (altimeter): 30.02 in. Hg (1016 hPa)
ob: KFRH 270815Z AUTO 22004KT 10SM CLR 16/09 A3002 RMK AO1
cycle: 8

Station Type Date Time Source
KFRH TAF UTC NOAA

Error!

Example: see airport list